sensor_id;sensor_type;location;lat;lon;timestamp;P1;durP1;ratioP1;P2;durP2;ratioP2
44987;SDS011;35735;52.226;21.254;2023-04-25T00:02:38;11.75;;;9.65;;
44987;SDS011;35735;52.226;21.254;2023-04-25T00:07:38;11.02;;;9.80;;
44987;SDS011;35735;52.226;21.254;2023-04-25T00:12:39;11.68;;;10.27;;
44987;SDS011;35735;52.226;21.254;2023-04-25T00:17:40;13.07;;;9.38;;
44987;SDS011;35735;52.226;21.254;2023-04-25T00:22:40;12.02;;;9.60;;
44987;SDS011;35735;52.226;21.254;2023-04-25T00:27:41;11.02;;;9.98;;
44987;SDS011;35735;52.226;21.254;2023-04-25T00:32:41;12.60;;;9.73;;
44987;SDS011;35735;52.226;21.254;2023-04-25T00:37:42;11.43;;;9.85;;
44987;SDS011;35735;52.226;21.254;2023-04-25T00:42:42;12.10;;;9.88;;
44987;SDS011;35735;52.226;21.254;2023-04-25T00:47:45;11.75;;;9.98;;
44987;SDS011;35735;52.226;21.254;2023-04-25T00:52:46;12.00;;;10.15;;
44987;SDS011;35735;52.226;21.254;2023-04-25T00:57:47;11.15;;;10.10;;
44987;SDS011;35735;52.226;21.254;2023-04-25T01:02:48;11.48;;;9.77;;
44987;SDS011;35735;52.226;21.254;2023-04-25T01:07:48;13.10;;;9.77;;
44987;SDS011;35735;52.226;21.254;2023-04-25T01:12:49;14.60;;;10.55;;
44987;SDS011;35735;52.226;21.254;2023-04-25T01:17:49;14.32;;;11.05;;
44987;SDS011;35735;52.226;21.254;2023-04-25T01:22:50;13.18;;;10.57;;
44987;SDS011;35735;52.226;21.254;2023-04-25T01:27:52;12.40;;;10.52;;
44987;SDS011;35735;52.226;21.254;2023-04-25T01:32:56;15.27;;;11.15;;
44987;SDS011;35735;52.226;21.254;2023-04-25T01:37:57;15.15;;;11.20;;
44987;SDS011;35735;52.226;21.254;2023-04-25T01:42:58;13.18;;;10.70;;
44987;SDS011;35735;52.226;21.254;2023-04-25T01:47:58;12.13;;;10.88;;
44987;SDS011;35735;52.226;21.254;2023-04-25T01:52:59;13.68;;;11.68;;
44987;SDS011;35735;52.226;21.254;2023-04-25T01:58:00;14.23;;;11.57;;
44987;SDS011;35735;52.226;21.254;2023-04-25T02:03:03;15.07;;;12.15;;
44987;SDS011;35735;52.226;21.254;2023-04-25T02:08:08;13.62;;;12.00;;
44987;SDS011;35735;52.226;21.254;2023-04-25T02:13:09;18.52;;;12.77;;
44987;SDS011;35735;52.226;21.254;2023-04-25T02:18:09;15.95;;;13.13;;
44987;SDS011;35735;52.226;21.254;2023-04-25T02:23:10;16.20;;;12.45;;
44987;SDS011;35735;52.226;21.254;2023-04-25T02:28:11;14.30;;;12.25;;
44987;SDS011;35735;52.226;21.254;2023-04-25T02:33:11;15.30;;;12.65;;
44987;SDS011;35735;52.226;21.254;2023-04-25T02:38:12;15.23;;;12.18;;
44987;SDS011;35735;52.226;21.254;2023-04-25T02:43:13;14.07;;;12.65;;
44987;SDS011;35735;52.226;21.254;2023-04-25T02:48:13;17.85;;;11.93;;
44987;SDS011;35735;52.226;21.254;2023-04-25T02:53:14;15.40;;;12.23;;
44987;SDS011;35735;52.226;21.254;2023-04-25T02:58:14;15.52;;;12.07;;
44987;SDS011;35735;52.226;21.254;2023-04-25T03:03:15;13.65;;;12.07;;
44987;SDS011;35735;52.226;21.254;2023-04-25T03:08:15;14.87;;;12.27;;
44987;SDS011;35735;52.226;21.254;2023-04-25T03:13:17;14.20;;;12.70;;
44987;SDS011;35735;52.226;21.254;2023-04-25T03:18:17;17.33;;;13.02;;
44987;SDS011;35735;52.226;21.254;2023-04-25T03:23:18;14.93;;;13.23;;
44987;SDS011;35735;52.226;21.254;2023-04-25T03:28:18;15.80;;;13.15;;
44987;SDS011;35735;52.226;21.254;2023-04-25T03:33:19;16.42;;;13.32;;
44987;SDS011;35735;52.226;21.254;2023-04-25T03:38:20;21.83;;;13.57;;
44987;SDS011;35735;52.226;21.254;2023-04-25T03:43:20;17.23;;;12.85;;
44987;SDS011;35735;52.226;21.254;2023-04-25T03:48:21;14.63;;;12.10;;
44987;SDS011;35735;52.226;21.254;2023-04-25T03:53:21;14.30;;;11.32;;
44987;SDS011;35735;52.226;21.254;2023-04-25T03:58:22;11.32;;;10.23;;
44987;SDS011;35735;52.226;21.254;2023-04-25T04:03:22;11.77;;;9.05;;
44987;SDS011;35735;52.226;21.254;2023-04-25T04:08:23;11.23;;;9.02;;
44987;SDS011;35735;52.226;21.254;2023-04-25T04:13:25;10.68;;;8.98;;
44987;SDS011;35735;52.226;21.254;2023-04-25T04:18:27;10.18;;;8.23;;
44987;SDS011;35735;52.226;21.254;2023-04-25T04:23:27;14.25;;;8.30;;
44987;SDS011;35735;52.226;21.254;2023-04-25T04:28:28;10.77;;;8.48;;
44987;SDS011;35735;52.226;21.254;2023-04-25T04:33:28;13.10;;;8.68;;
44987;SDS011;35735;52.226;21.254;2023-04-25T04:38:29;9.40;;;8.20;;
44987;SDS011;35735;52.226;21.254;2023-04-25T04:43:30;12.70;;;7.80;;
44987;SDS011;35735;52.226;21.254;2023-04-25T04:48:31;8.95;;;7.93;;
44987;SDS011;35735;52.226;21.254;2023-04-25T04:53:32;10.93;;;8.25;;
44987;SDS011;35735;52.226;21.254;2023-04-25T04:58:33;11.00;;;8.57;;
44987;SDS011;35735;52.226;21.254;2023-04-25T05:03:33;11.35;;;8.90;;
44987;SDS011;35735;52.226;21.254;2023-04-25T05:08:34;20.35;;;9.48;;
44987;SDS011;35735;52.226;21.254;2023-04-25T05:13:34;9.73;;;8.57;;
44987;SDS011;35735;52.226;21.254;2023-04-25T05:18:35;10.60;;;8.55;;
44987;SDS011;35735;52.226;21.254;2023-04-25T05:23:36;9.35;;;8.43;;
44987;SDS011;35735;52.226;21.254;2023-04-25T05:28:36;9.15;;;8.18;;
44987;SDS011;35735;52.226;21.254;2023-04-25T05:33:37;11.15;;;8.10;;
44987;SDS011;35735;52.226;21.254;2023-04-25T05:38:37;10.55;;;8.68;;
44987;SDS011;35735;52.226;21.254;2023-04-25T05:43:38;10.20;;;7.75;;
44987;SDS011;35735;52.226;21.254;2023-04-25T05:48:39;10.57;;;7.95;;
44987;SDS011;35735;52.226;21.254;2023-04-25T05:53:39;16.52;;;8.45;;
44987;SDS011;35735;52.226;21.254;2023-04-25T05:58:40;17.52;;;8.63;;
44987;SDS011;35735;52.226;21.254;2023-04-25T06:03:40;9.75;;;7.68;;
44987;SDS011;35735;52.226;21.254;2023-04-25T06:08:41;15.30;;;8.88;;
44987;SDS011;35735;52.226;21.254;2023-04-25T06:13:41;8.45;;;7.30;;
44987;SDS011;35735;52.226;21.254;2023-04-25T06:18:42;7.93;;;7.20;;
44987;SDS011;35735;52.226;21.254;2023-04-25T06:23:42;10.20;;;7.22;;
44987;SDS011;35735;52.226;21.254;2023-04-25T06:28:43;7.93;;;6.75;;
44987;SDS011;35735;52.226;21.254;2023-04-25T06:33:44;15.45;;;6.65;;
44987;SDS011;35735;52.226;21.254;2023-04-25T06:38:44;8.70;;;6.40;;
44987;SDS011;35735;52.226;21.254;2023-04-25T06:43:45;7.95;;;6.87;;
44987;SDS011;35735;52.226;21.254;2023-04-25T06:48:45;7.47;;;6.45;;
44987;SDS011;35735;52.226;21.254;2023-04-25T06:53:46;7.65;;;5.62;;
44987;SDS011;35735;52.226;21.254;2023-04-25T06:58:46;6.25;;;5.20;;
44987;SDS011;35735;52.226;21.254;2023-04-25T07:03:47;6.72;;;5.78;;
44987;SDS011;35735;52.226;21.254;2023-04-25T07:08:47;6.00;;;5.43;;
44987;SDS011;35735;52.226;21.254;2023-04-25T07:13:48;5.45;;;4.87;;
44987;SDS011;35735;52.226;21.254;2023-04-25T07:18:48;8.23;;;4.82;;
44987;SDS011;35735;52.226;21.254;2023-04-25T07:23:49;6.65;;;5.65;;
44987;SDS011;35735;52.226;21.254;2023-04-25T07:28:50;7.87;;;7.15;;
44987;SDS011;35735;52.226;21.254;2023-04-25T07:33:50;9.20;;;8.30;;
44987;SDS011;35735;52.226;21.254;2023-04-25T07:38:51;8.60;;;7.80;;
44987;SDS011;35735;52.226;21.254;2023-04-25T07:43:51;10.27;;;9.18;;
44987;SDS011;35735;52.226;21.254;2023-04-25T07:48:52;10.18;;;9.27;;
44987;SDS011;35735;52.226;21.254;2023-04-25T07:53:52;7.97;;;7.28;;
44987;SDS011;35735;52.226;21.254;2023-04-25T07:58:53;13.15;;;8.80;;
44987;SDS011;35735;52.226;21.254;2023-04-25T08:03:53;8.50;;;7.70;;
44987;SDS011;35735;52.226;21.254;2023-04-25T08:08:54;7.05;;;6.35;;
44987;SDS011;35735;52.226;21.254;2023-04-25T08:13:54;7.15;;;6.45;;
44987;SDS011;35735;52.226;21.254;2023-04-25T08:18:55;8.43;;;6.50;;
44987;SDS011;35735;52.226;21.254;2023-04-25T08:23:56;9.15;;;6.28;;
44987;SDS011;35735;52.226;21.254;2023-04-25T08:28:56;9.48;;;7.12;;
44987;SDS011;35735;52.226;21.254;2023-04-25T08:33:57;5.10;;;3.90;;
44987;SDS011;35735;52.226;21.254;2023-04-25T08:38:57;4.85;;;4.00;;
44987;SDS011;35735;52.226;21.254;2023-04-25T08:43:58;4.50;;;4.10;;
44987;SDS011;35735;52.226;21.254;2023-04-25T08:49:02;5.57;;;5.07;;
44987;SDS011;35735;52.226;21.254;2023-04-25T08:59:12;5.62;;;5.00;;
44987;SDS011;35735;52.226;21.254;2023-04-25T09:04:12;5.72;;;5.22;;
44987;SDS011;35735;52.226;21.254;2023-04-25T09:09:13;6.60;;;6.00;;
44987;SDS011;35735;52.226;21.254;2023-04-25T09:14:18;7.55;;;6.20;;
44987;SDS011;35735;52.226;21.254;2023-04-25T09:19:21;6.18;;;5.68;;
44987;SDS011;35735;52.226;21.254;2023-04-25T09:24:34;8.55;;;6.12;;
44987;SDS011;35735;52.226;21.254;2023-04-25T09:29:42;7.15;;;6.12;;
44987;SDS011;35735;52.226;21.254;2023-04-25T09:34:44;6.40;;;5.80;;
44987;SDS011;35735;52.226;21.254;2023-04-25T09:39:55;7.28;;;5.85;;
44987;SDS011;35735;52.226;21.254;2023-04-25T09:44:58;6.50;;;5.87;;
44987;SDS011;35735;52.226;21.254;2023-04-25T09:49:59;9.25;;;5.62;;
44987;SDS011;35735;52.226;21.254;2023-04-25T09:54:59;6.57;;;5.97;;
44987;SDS011;35735;52.226;21.254;2023-04-25T10:00:00;8.48;;;6.60;;
44987;SDS011;35735;52.226;21.254;2023-04-25T10:05:01;7.43;;;6.72;;
44987;SDS011;35735;52.226;21.254;2023-04-25T10:10:05;8.25;;;7.45;;
44987;SDS011;35735;52.226;21.254;2023-04-25T10:15:07;9.48;;;8.55;;
44987;SDS011;35735;52.226;21.254;2023-04-25T10:20:09;9.45;;;8.52;;
44987;SDS011;35735;52.226;21.254;2023-04-25T10:25:10;8.23;;;7.40;;
44987;SDS011;35735;52.226;21.254;2023-04-25T10:30:14;10.48;;;7.82;;
44987;SDS011;35735;52.226;21.254;2023-04-25T10:35:19;9.32;;;8.30;;
44987;SDS011;35735;52.226;21.254;2023-04-25T10:40:30;8.80;;;8.00;;
44987;SDS011;35735;52.226;21.254;2023-04-25T10:45:50;13.13;;;8.20;;
44987;SDS011;35735;52.226;21.254;2023-04-25T10:51:10;9.82;;;8.68;;
44987;SDS011;35735;52.226;21.254;2023-04-25T10:56:37;8.93;;;7.97;;
44987;SDS011;35735;52.226;21.254;2023-04-25T11:01:40;8.40;;;7.70;;
44987;SDS011;35735;52.226;21.254;2023-04-25T11:12:02;13.20;;;9.40;;
44987;SDS011;35735;52.226;21.254;2023-04-25T11:17:03;9.95;;;8.95;;
44987;SDS011;35735;52.226;21.254;2023-04-25T11:22:03;10.77;;;9.77;;
44987;SDS011;35735;52.226;21.254;2023-04-25T11:27:04;11.27;;;10.20;;
44987;SDS011;35735;52.226;21.254;2023-04-25T11:32:05;14.38;;;11.45;;
44987;SDS011;35735;52.226;21.254;2023-04-25T11:37:06;14.68;;;11.82;;
44987;SDS011;35735;52.226;21.254;2023-04-25T11:42:06;11.85;;;10.52;;
44987;SDS011;35735;52.226;21.254;2023-04-25T11:47:07;12.02;;;10.82;;
44987;SDS011;35735;52.226;21.254;2023-04-25T11:52:07;11.32;;;10.07;;
44987;SDS011;35735;52.226;21.254;2023-04-25T11:57:08;11.73;;;10.05;;
44987;SDS011;35735;52.226;21.254;2023-04-25T12:02:08;10.23;;;9.13;;
44987;SDS011;35735;52.226;21.254;2023-04-25T12:07:09;8.43;;;7.57;;
44987;SDS011;35735;52.226;21.254;2023-04-25T12:12:10;8.02;;;6.60;;
44987;SDS011;35735;52.226;21.254;2023-04-25T12:17:10;6.72;;;5.75;;
44987;SDS011;35735;52.226;21.254;2023-04-25T12:22:21;7.15;;;4.80;;
44987;SDS011;35735;52.226;21.254;2023-04-25T12:27:24;6.18;;;4.18;;
44987;SDS011;35735;52.226;21.254;2023-04-25T12:32:25;4.43;;;4.03;;
44987;SDS011;35735;52.226;21.254;2023-04-25T12:37:26;4.97;;;4.45;;
44987;SDS011;35735;52.226;21.254;2023-04-25T12:42:26;5.30;;;4.40;;
44987;SDS011;35735;52.226;21.254;2023-04-25T12:47:27;4.60;;;4.20;;
44987;SDS011;35735;52.226;21.254;2023-04-25T12:52:27;6.05;;;5.47;;
44987;SDS011;35735;52.226;21.254;2023-04-25T12:57:28;6.10;;;5.05;;
44987;SDS011;35735;52.226;21.254;2023-04-25T13:02:28;6.15;;;5.50;;
44987;SDS011;35735;52.226;21.254;2023-04-25T13:07:29;7.85;;;4.82;;
44987;SDS011;35735;52.226;21.254;2023-04-25T13:12:30;5.97;;;5.47;;
44987;SDS011;35735;52.226;21.254;2023-04-25T13:17:30;5.65;;;4.95;;
44987;SDS011;35735;52.226;21.254;2023-04-25T13:22:31;9.20;;;5.05;;
44987;SDS011;35735;52.226;21.254;2023-04-25T13:27:31;5.22;;;3.90;;
44987;SDS011;35735;52.226;21.254;2023-04-25T13:32:37;4.80;;;3.22;;
44987;SDS011;35735;52.226;21.254;2023-04-25T13:37:38;3.50;;;3.20;;
44987;SDS011;35735;52.226;21.254;2023-04-25T13:42:39;4.68;;;2.97;;
44987;SDS011;35735;52.226;21.254;2023-04-25T13:47:40;8.98;;;3.17;;
44987;SDS011;35735;52.226;21.254;2023-04-25T13:52:40;5.80;;;2.95;;
44987;SDS011;35735;52.226;21.254;2023-04-25T13:57:41;7.20;;;2.92;;
44987;SDS011;35735;52.226;21.254;2023-04-25T14:02:41;3.33;;;2.60;;
44987;SDS011;35735;52.226;21.254;2023-04-25T14:07:42;5.07;;;2.25;;
44987;SDS011;35735;52.226;21.254;2023-04-25T14:12:43;9.48;;;2.20;;
44987;SDS011;35735;52.226;21.254;2023-04-25T14:17:43;7.55;;;2.20;;
44987;SDS011;35735;52.226;21.254;2023-04-25T14:22:44;3.62;;;1.75;;
44987;SDS011;35735;52.226;21.254;2023-04-25T14:27:44;3.20;;;1.50;;
44987;SDS011;35735;52.226;21.254;2023-04-25T14:32:45;3.97;;;1.45;;
44987;SDS011;35735;52.226;21.254;2023-04-25T14:37:45;2.08;;;1.50;;
44987;SDS011;35735;52.226;21.254;2023-04-25T14:42:46;2.92;;;1.65;;
44987;SDS011;35735;52.226;21.254;2023-04-25T14:47:46;2.72;;;2.00;;
44987;SDS011;35735;52.226;21.254;2023-04-25T14:52:47;5.68;;;2.03;;
44987;SDS011;35735;52.226;21.254;2023-04-25T14:57:48;2.60;;;2.40;;
44987;SDS011;35735;52.226;21.254;2023-04-25T15:02:48;2.97;;;2.50;;
44987;SDS011;35735;52.226;21.254;2023-04-25T15:07:49;6.22;;;3.00;;
44987;SDS011;35735;52.226;21.254;2023-04-25T15:12:50;3.37;;;3.08;;
44987;SDS011;35735;52.226;21.254;2023-04-25T15:17:50;3.62;;;3.30;;
44987;SDS011;35735;52.226;21.254;2023-04-25T15:22:51;5.97;;;3.92;;
44987;SDS011;35735;52.226;21.254;2023-04-25T15:27:51;4.85;;;4.12;;
44987;SDS011;35735;52.226;21.254;2023-04-25T15:32:52;7.68;;;3.90;;
44987;SDS011;35735;52.226;21.254;2023-04-25T15:37:52;7.37;;;5.10;;
44987;SDS011;35735;52.226;21.254;2023-04-25T15:42:53;5.12;;;4.55;;
44987;SDS011;35735;52.226;21.254;2023-04-25T15:47:56;5.72;;;5.12;;
44987;SDS011;35735;52.226;21.254;2023-04-25T15:52:57;5.68;;;5.18;;
44987;SDS011;35735;52.226;21.254;2023-04-25T15:57:57;6.18;;;5.28;;
44987;SDS011;35735;52.226;21.254;2023-04-25T16:02:58;7.15;;;5.37;;
44987;SDS011;35735;52.226;21.254;2023-04-25T16:07:59;7.60;;;5.80;;
44987;SDS011;35735;52.226;21.254;2023-04-25T16:12:59;6.18;;;5.57;;
44987;SDS011;35735;52.226;21.254;2023-04-25T16:18:00;6.15;;;5.55;;
44987;SDS011;35735;52.226;21.254;2023-04-25T16:23:00;7.90;;;6.62;;
44987;SDS011;35735;52.226;21.254;2023-04-25T16:28:01;6.95;;;6.05;;
44987;SDS011;35735;52.226;21.254;2023-04-25T16:33:01;13.38;;;6.12;;
44987;SDS011;35735;52.226;21.254;2023-04-25T16:38:02;7.95;;;6.30;;
44987;SDS011;35735;52.226;21.254;2023-04-25T16:43:03;9.05;;;6.80;;
44987;SDS011;35735;52.226;21.254;2023-04-25T16:48:03;8.45;;;7.62;;
44987;SDS011;35735;52.226;21.254;2023-04-25T16:53:04;10.73;;;7.07;;
44987;SDS011;35735;52.226;21.254;2023-04-25T16:58:04;8.85;;;7.95;;
44987;SDS011;35735;52.226;21.254;2023-04-25T17:03:05;7.85;;;6.87;;
44987;SDS011;35735;52.226;21.254;2023-04-25T17:08:05;8.00;;;6.47;;
44987;SDS011;35735;52.226;21.254;2023-04-25T17:13:06;8.13;;;5.97;;
44987;SDS011;35735;52.226;21.254;2023-04-25T17:18:07;7.68;;;6.62;;
44987;SDS011;35735;52.226;21.254;2023-04-25T17:23:07;9.40;;;5.97;;
44987;SDS011;35735;52.226;21.254;2023-04-25T17:28:08;9.20;;;6.22;;
44987;SDS011;35735;52.226;21.254;2023-04-25T17:33:08;10.13;;;7.05;;
44987;SDS011;35735;52.226;21.254;2023-04-25T17:38:09;7.95;;;6.20;;
44987;SDS011;35735;52.226;21.254;2023-04-25T17:43:09;8.38;;;6.85;;
44987;SDS011;35735;52.226;21.254;2023-04-25T17:48:10;9.02;;;6.65;;
44987;SDS011;35735;52.226;21.254;2023-04-25T17:53:10;7.03;;;6.07;;
44987;SDS011;35735;52.226;21.254;2023-04-25T17:58:11;7.75;;;6.50;;
44987;SDS011;35735;52.226;21.254;2023-04-25T18:03:11;8.95;;;6.82;;
44987;SDS011;35735;52.226;21.254;2023-04-25T18:08:12;9.70;;;6.97;;
44987;SDS011;35735;52.226;21.254;2023-04-25T18:13:13;12.02;;;6.90;;
44987;SDS011;35735;52.226;21.254;2023-04-25T18:18:13;7.90;;;6.75;;
44987;SDS011;35735;52.226;21.254;2023-04-25T18:23:14;9.45;;;6.65;;
44987;SDS011;35735;52.226;21.254;2023-04-25T18:28:14;10.63;;;7.85;;
44987;SDS011;35735;52.226;21.254;2023-04-25T18:33:15;7.78;;;6.60;;
44987;SDS011;35735;52.226;21.254;2023-04-25T18:38:15;9.15;;;6.90;;
44987;SDS011;35735;52.226;21.254;2023-04-25T18:43:16;9.27;;;6.93;;
44987;SDS011;35735;52.226;21.254;2023-04-25T18:48:17;9.45;;;6.95;;
44987;SDS011;35735;52.226;21.254;2023-04-25T18:53:17;8.75;;;6.62;;
44987;SDS011;35735;52.226;21.254;2023-04-25T18:58:18;12.25;;;6.97;;
44987;SDS011;35735;52.226;21.254;2023-04-25T19:03:19;8.23;;;6.93;;
44987;SDS011;35735;52.226;21.254;2023-04-25T19:08:21;9.48;;;7.28;;
44987;SDS011;35735;52.226;21.254;2023-04-25T19:13:21;10.27;;;7.85;;
44987;SDS011;35735;52.226;21.254;2023-04-25T19:18:22;10.43;;;7.50;;
44987;SDS011;35735;52.226;21.254;2023-04-25T19:23:23;9.32;;;7.62;;
44987;SDS011;35735;52.226;21.254;2023-04-25T19:28:24;8.95;;;7.65;;
44987;SDS011;35735;52.226;21.254;2023-04-25T19:33:25;8.35;;;6.85;;
44987;SDS011;35735;52.226;21.254;2023-04-25T19:38:25;9.13;;;7.70;;
44987;SDS011;35735;52.226;21.254;2023-04-25T19:43:26;8.43;;;7.62;;
44987;SDS011;35735;52.226;21.254;2023-04-25T19:48:26;10.20;;;7.00;;
44987;SDS011;35735;52.226;21.254;2023-04-25T19:53:27;9.35;;;7.07;;
44987;SDS011;35735;52.226;21.254;2023-04-25T19:58:27;8.10;;;6.95;;
44987;SDS011;35735;52.226;21.254;2023-04-25T20:03:28;13.32;;;7.05;;
44987;SDS011;35735;52.226;21.254;2023-04-25T20:08:28;7.90;;;6.60;;
44987;SDS011;35735;52.226;21.254;2023-04-25T20:13:29;8.80;;;7.20;;
44987;SDS011;35735;52.226;21.254;2023-04-25T20:18:30;7.57;;;6.68;;
44987;SDS011;35735;52.226;21.254;2023-04-25T20:23:30;7.80;;;6.28;;
44987;SDS011;35735;52.226;21.254;2023-04-25T20:28:31;7.70;;;6.90;;
44987;SDS011;35735;52.226;21.254;2023-04-25T20:33:31;8.32;;;6.30;;
44987;SDS011;35735;52.226;21.254;2023-04-25T20:38:32;7.97;;;6.60;;
44987;SDS011;35735;52.226;21.254;2023-04-25T20:43:32;8.10;;;6.47;;
44987;SDS011;35735;52.226;21.254;2023-04-25T20:48:33;8.13;;;6.82;;
44987;SDS011;35735;52.226;21.254;2023-04-25T20:53:33;9.20;;;7.43;;
44987;SDS011;35735;52.226;21.254;2023-04-25T20:58:34;9.98;;;7.00;;
44987;SDS011;35735;52.226;21.254;2023-04-25T21:03:35;8.95;;;7.15;;
44987;SDS011;35735;52.226;21.254;2023-04-25T21:08:35;8.23;;;7.37;;
44987;SDS011;35735;52.226;21.254;2023-04-25T21:13:36;9.90;;;7.60;;
44987;SDS011;35735;52.226;21.254;2023-04-25T21:18:36;10.50;;;8.43;;
44987;SDS011;35735;52.226;21.254;2023-04-25T21:23:37;9.65;;;8.40;;
44987;SDS011;35735;52.226;21.254;2023-04-25T21:28:37;10.18;;;8.68;;
44987;SDS011;35735;52.226;21.254;2023-04-25T21:33:38;10.00;;;9.00;;
44987;SDS011;35735;52.226;21.254;2023-04-25T21:38:38;11.30;;;9.73;;
44987;SDS011;35735;52.226;21.254;2023-04-25T21:43:39;13.70;;;10.27;;
44987;SDS011;35735;52.226;21.254;2023-04-25T21:48:40;11.95;;;9.98;;
44987;SDS011;35735;52.226;21.254;2023-04-25T21:53:40;11.45;;;9.75;;
44987;SDS011;35735;52.226;21.254;2023-04-25T21:58:41;10.82;;;9.73;;
44987;SDS011;35735;52.226;21.254;2023-04-25T22:03:41;12.60;;;10.35;;
44987;SDS011;35735;52.226;21.254;2023-04-25T22:08:42;13.80;;;9.95;;
44987;SDS011;35735;52.226;21.254;2023-04-25T22:13:42;10.85;;;9.73;;
44987;SDS011;35735;52.226;21.254;2023-04-25T22:18:43;9.93;;;8.48;;
44987;SDS011;35735;52.226;21.254;2023-04-25T22:23:43;8.82;;;7.93;;
44987;SDS011;35735;52.226;21.254;2023-04-25T22:28:44;9.32;;;8.07;;
44987;SDS011;35735;52.226;21.254;2023-04-25T22:33:45;9.70;;;8.63;;
44987;SDS011;35735;52.226;21.254;2023-04-25T22:38:46;11.43;;;9.02;;
44987;SDS011;35735;52.226;21.254;2023-04-25T22:43:46;10.20;;;9.13;;
44987;SDS011;35735;52.226;21.254;2023-04-25T22:48:47;9.57;;;8.23;;
44987;SDS011;35735;52.226;21.254;2023-04-25T22:53:48;9.60;;;8.70;;
44987;SDS011;35735;52.226;21.254;2023-04-25T22:58:48;9.57;;;8.50;;
44987;SDS011;35735;52.226;21.254;2023-04-25T23:03:49;8.35;;;7.55;;
44987;SDS011;35735;52.226;21.254;2023-04-25T23:08:50;7.20;;;6.20;;
44987;SDS011;35735;52.226;21.254;2023-04-25T23:13:50;7.47;;;6.78;;
44987;SDS011;35735;52.226;21.254;2023-04-25T23:18:51;6.90;;;5.60;;
44987;SDS011;35735;52.226;21.254;2023-04-25T23:23:51;6.43;;;5.10;;
44987;SDS011;35735;52.226;21.254;2023-04-25T23:28:52;6.97;;;4.78;;
44987;SDS011;35735;52.226;21.254;2023-04-25T23:33:52;5.95;;;4.55;;
44987;SDS011;35735;52.226;21.254;2023-04-25T23:38:53;6.57;;;4.30;;
44987;SDS011;35735;52.226;21.254;2023-04-25T23:43:53;7.90;;;3.80;;
44987;SDS011;35735;52.226;21.254;2023-04-25T23:48:54;5.68;;;4.00;;
44987;SDS011;35735;52.226;21.254;2023-04-25T23:53:55;6.10;;;3.95;;
44987;SDS011;35735;52.226;21.254;2023-04-25T23:58:55;6.95;;;3.87;;
